createdAt,value
2023-02-22T00:01:35.668Z,86.00
2023-02-22T00:04:39.908Z,86.27
2023-02-22T00:07:42.405Z,86.39
2023-02-22T00:10:45.424Z,86.49
2023-02-22T00:13:50.640Z,86.26
2023-02-22T00:16:53.014Z,86.15
2023-02-22T00:19:55.240Z,86.33
2023-02-22T00:22:57.560Z,86.55
2023-02-22T00:26:01.357Z,87.21
2023-02-22T00:29:03.721Z,87.16
2023-02-22T00:32:06.203Z,87.24
2023-02-22T00:35:09.000Z,87.19
2023-02-22T00:38:12.099Z,87.52
2023-02-22T00:41:15.226Z,87.67
2023-02-22T00:44:17.642Z,87.67
2023-02-22T00:47:20.033Z,87.81
2023-02-22T00:50:24.957Z,87.75
2023-02-22T00:53:27.436Z,87.85
2023-02-22T00:56:29.778Z,87.92
2023-02-22T00:59:32.166Z,88.25
2023-02-22T01:02:34.760Z,88.52
2023-02-22T01:05:38.481Z,88.38
2023-02-22T01:08:45.267Z,88.53
2023-02-22T01:11:49.082Z,88.35
2023-02-22T01:14:51.622Z,88.45
2023-02-22T01:17:55.091Z,88.25
2023-02-22T01:20:57.516Z,88.37
2023-02-22T01:24:00.022Z,88.11
2023-02-22T01:27:02.816Z,88.34
2023-02-22T01:30:08.838Z,88.29
2023-02-22T01:33:13.026Z,88.44
2023-02-22T01:36:15.299Z,88.68
2023-02-22T01:39:18.200Z,89.07
2023-02-22T01:42:20.571Z,88.99
2023-02-22T01:45:35.005Z,89.53
2023-02-22T01:48:45.297Z,89.52
2023-02-22T01:51:52.002Z,89.54
2023-02-22T01:54:58.383Z,89.33
2023-02-22T01:58:01.664Z,89.67
2023-02-22T02:01:05.701Z,89.84
2023-02-22T02:04:20.935Z,89.77
2023-02-22T02:07:25.066Z,90.08
2023-02-22T02:10:28.511Z,90.34
2023-02-22T02:13:30.961Z,90.03
2023-02-22T02:16:46.439Z,90.35
2023-02-22T02:20:11.824Z,90.46
2023-02-22T02:23:52.629Z,90.55
2023-02-22T02:27:13.925Z,90.40
2023-02-22T02:30:25.510Z,90.23
2023-02-22T02:33:35.326Z,90.04
2023-02-22T02:36:47.696Z,90.17
2023-02-22T02:39:55.905Z,90.20
2023-02-22T02:43:05.333Z,90.33
2023-02-22T02:46:15.513Z,90.21
2023-02-22T02:49:27.683Z,89.97
2023-02-22T02:52:33.495Z,90.09
2023-02-22T02:55:37.313Z,90.11
2023-02-22T02:58:46.353Z,90.00
2023-02-22T03:02:07.670Z,90.06
2023-02-22T03:05:28.162Z,90.18
2023-02-22T03:09:01.652Z,90.36
2023-02-22T03:12:22.284Z,90.94
2023-02-22T03:16:13.026Z,90.84
2023-02-22T03:19:45.977Z,90.72
2023-02-22T03:22:57.973Z,90.92
2023-02-22T03:26:13.499Z,90.99
2023-02-22T03:29:18.852Z,90.80
2023-02-22T03:32:25.571Z,90.81
2023-02-22T03:35:35.581Z,91.04
2023-02-22T03:38:41.157Z,90.96
2023-02-22T03:41:51.595Z,91.03
2023-02-22T03:44:55.412Z,91.24
2023-02-22T03:48:05.024Z,91.61
2023-02-22T03:51:07.911Z,91.74
2023-02-22T03:54:16.589Z,92.05
2023-02-22T03:57:29.516Z,91.78
2023-02-22T04:00:35.150Z,91.73
2023-02-22T04:03:37.466Z,92.47
2023-02-22T04:06:39.861Z,92.47
2023-02-22T04:09:42.719Z,92.39
2023-02-22T04:12:45.457Z,92.76
2023-02-22T04:15:47.894Z,92.40
2023-02-22T04:18:50.369Z,92.28
2023-02-22T04:21:52.999Z,92.57
2023-02-22T04:24:55.357Z,92.64
2023-02-22T04:27:58.022Z,92.54
2023-02-22T04:31:00.974Z,92.77
2023-02-22T04:34:04.134Z,92.82
2023-02-22T04:37:07.878Z,92.73
2023-02-22T04:40:11.776Z,92.45
2023-02-22T04:43:14.101Z,92.29
2023-02-22T04:46:16.715Z,92.44
2023-02-22T04:49:19.189Z,92.84
2023-02-22T04:52:21.933Z,92.86
2023-02-22T04:55:24.367Z,92.77
2023-02-22T04:58:26.851Z,93.16
2023-02-22T05:01:33.978Z,93.29
2023-02-22T05:04:38.890Z,93.53
2023-02-22T05:07:41.272Z,93.83
2023-02-22T05:10:43.888Z,93.97
2023-02-22T05:13:46.942Z,93.73
2023-02-22T05:16:50.167Z,93.77
2023-02-22T05:19:52.996Z,94.00
2023-02-22T05:23:00.246Z,94.36
2023-02-22T05:26:02.584Z,94.20
2023-02-22T05:29:05.308Z,94.20
2023-02-22T05:32:07.735Z,94.15
2023-02-22T05:35:10.059Z,94.15
2023-02-22T05:38:15.547Z,94.15
2023-02-22T05:41:18.583Z,94.15
2023-02-22T05:44:21.183Z,94.10
2023-02-22T05:47:23.652Z,94.09
2023-02-22T05:50:27.190Z,94.22
2023-02-22T05:53:29.694Z,94.08
2023-02-22T05:56:32.097Z,94.11
2023-02-22T05:59:34.422Z,94.31
2023-02-22T06:02:37.060Z,94.50
2023-02-22T06:05:39.625Z,94.76
2023-02-22T06:08:42.037Z,94.77
2023-02-22T06:11:44.459Z,94.42
2023-02-22T06:14:46.840Z,94.35
2023-02-22T06:17:49.288Z,94.55
2023-02-22T06:20:54.466Z,94.37
2023-02-22T06:23:57.096Z,93.94
2023-02-22T06:27:01.727Z,93.77
2023-02-22T06:30:05.401Z,93.64
2023-02-22T06:33:08.311Z,93.87
2023-02-22T06:36:10.959Z,94.25
2023-02-22T06:39:13.338Z,94.42
2023-02-22T06:42:15.715Z,94.66
2023-02-22T06:45:18.729Z,94.62
2023-02-22T06:48:21.114Z,94.24
2023-02-22T06:51:24.120Z,93.89
2023-02-22T06:54:27.425Z,93.88
2023-02-22T06:57:29.764Z,93.69
2023-02-22T07:00:33.059Z,93.37
2023-02-22T07:03:36.437Z,93.01
2023-02-22T07:06:38.761Z,92.61
2023-02-22T07:09:41.115Z,92.17
2023-02-22T07:12:43.539Z,91.86
2023-02-22T07:15:45.940Z,91.44
2023-02-22T07:18:48.267Z,91.07
2023-02-22T07:21:51.129Z,89.93
2023-02-22T07:24:55.878Z,87.67
2023-02-22T07:27:59.865Z,83.85
2023-02-22T07:31:02.485Z,80.80
2023-02-22T07:34:04.896Z,77.44
2023-02-22T07:37:07.282Z,73.60
2023-02-22T07:40:10.429Z,73.40
2023-02-22T07:43:31.886Z,72.49
2023-02-22T07:46:34.277Z,70.09
2023-02-22T07:49:37.315Z,67.96
2023-02-22T07:52:39.703Z,68.33
2023-02-22T07:55:42.034Z,64.40
2023-02-22T07:58:44.498Z,63.73
2023-02-22T08:01:50.194Z,60.88
2023-02-22T08:04:52.506Z,61.43
2023-02-22T08:07:55.020Z,61.27
2023-02-22T08:10:57.488Z,60.88
2023-02-22T08:13:59.964Z,58.49
2023-02-22T08:17:02.477Z,59.41
2023-02-22T08:20:05.308Z,58.58
2023-02-22T08:23:08.868Z,58.32
2023-02-22T08:26:15.847Z,57.21
2023-02-22T08:29:18.158Z,55.23
2023-02-22T08:32:20.972Z,52.52
2023-02-22T08:35:23.580Z,56.25
2023-02-22T08:38:29.391Z,51.31
2023-02-22T08:41:31.758Z,52.37
2023-02-22T08:44:34.178Z,52.90
2023-02-22T08:47:36.907Z,52.78
2023-02-22T08:50:41.599Z,52.08
2023-02-22T08:53:44.597Z,51.98
2023-02-22T08:56:46.895Z,51.84
2023-02-22T08:59:49.343Z,51.94
2023-02-22T09:02:53.224Z,51.98
2023-02-22T09:05:56.301Z,52.11
2023-02-22T09:08:58.808Z,51.04
2023-02-22T09:12:01.159Z,51.61
2023-02-22T09:15:04.121Z,50.31
2023-02-22T09:18:08.734Z,48.35
2023-02-22T09:21:12.047Z,49.12
2023-02-22T09:24:14.912Z,50.29
2023-02-22T09:27:20.310Z,51.08
2023-02-22T09:30:25.284Z,50.52
2023-02-22T09:33:27.589Z,50.40
2023-02-22T09:36:30.058Z,49.74
2023-02-22T09:39:37.942Z,47.42
2023-02-22T09:42:47.172Z,46.72
2023-02-22T09:46:19.685Z,48.66
2023-02-22T09:49:34.787Z,46.91
2023-02-22T09:52:41.711Z,47.62
2023-02-22T09:55:51.239Z,46.59
2023-02-22T09:58:59.609Z,45.79
2023-02-22T10:02:30.503Z,44.32
2023-02-22T10:05:43.016Z,43.04
2023-02-22T10:08:45.656Z,41.06
2023-02-22T10:12:15.301Z,41.21
2023-02-22T10:15:32.786Z,40.55
2023-02-22T10:19:01.866Z,38.96
2023-02-22T10:22:07.905Z,38.21
2023-02-22T10:25:26.059Z,39.28
2023-02-22T10:28:38.322Z,38.64
2023-02-22T10:31:47.328Z,39.72
2023-02-22T10:34:54.076Z,36.54
2023-02-22T10:38:17.446Z,34.57
2023-02-22T10:41:28.040Z,34.19
2023-02-22T10:44:30.853Z,34.33
2023-02-22T10:47:34.152Z,35.12
2023-02-22T10:50:41.018Z,33.93
2023-02-22T10:53:43.417Z,33.01
2023-02-22T10:56:52.458Z,34.38
2023-02-22T10:59:57.763Z,34.38
2023-02-22T11:03:02.580Z,35.55
2023-02-22T11:06:19.588Z,35.71
2023-02-22T11:09:22.806Z,33.99
2023-02-22T11:12:32.303Z,31.94
2023-02-22T11:15:36.241Z,31.65
2023-02-22T11:18:38.532Z,32.06
2023-02-22T11:21:41.764Z,32.82
2023-02-22T11:24:51.271Z,32.30
2023-02-22T11:27:54.299Z,29.92
2023-02-22T11:30:59.341Z,30.50
2023-02-22T11:34:04.040Z,30.51
2023-02-22T11:37:37.023Z,32.01
2023-02-22T11:40:40.385Z,30.88
2023-02-22T11:43:48.140Z,31.97
2023-02-22T11:46:52.177Z,33.35
2023-02-22T11:49:54.688Z,32.53
2023-02-22T11:53:12.032Z,32.49
2023-02-22T11:56:37.770Z,31.29
2023-02-22T11:59:41.092Z,30.52
2023-02-22T12:03:33.552Z,30.14
2023-02-22T12:06:53.848Z,30.39
2023-02-22T12:10:23.077Z,29.16
2023-02-22T12:13:44.529Z,28.10
2023-02-22T12:16:49.768Z,28.26
2023-02-22T12:19:59.755Z,28.13
2023-02-22T12:23:34.040Z,29.83
2023-02-22T12:26:41.500Z,30.66
2023-02-22T12:29:50.789Z,31.54
2023-02-22T12:32:55.546Z,31.77
2023-02-22T12:36:00.946Z,30.41
2023-02-22T12:39:29.749Z,31.03
2023-02-22T12:42:57.942Z,30.36
2023-02-22T12:46:16.351Z,29.96
2023-02-22T12:49:30.886Z,30.48
2023-02-22T12:52:37.735Z,31.02
2023-02-22T12:55:48.026Z,30.03
2023-02-22T12:58:54.887Z,32.53
2023-02-22T13:02:04.372Z,32.64
2023-02-22T13:05:14.161Z,33.69
2023-02-22T13:08:38.785Z,33.73
2023-02-22T13:11:53.057Z,32.34
2023-02-22T13:15:11.062Z,32.88
2023-02-22T13:18:19.152Z,31.95
2023-02-22T13:21:36.567Z,31.61
2023-02-22T13:24:53.081Z,31.44
2023-02-22T13:28:10.505Z,32.63
2023-02-22T13:31:39.321Z,32.75
2023-02-22T13:34:58.243Z,32.13
2023-02-22T13:38:35.596Z,33.09
2023-02-22T13:41:46.521Z,32.96
2023-02-22T13:45:08.123Z,32.63
2023-02-22T13:48:47.917Z,33.15
2023-02-22T13:51:59.070Z,33.14
2023-02-22T13:55:11.449Z,32.47
2023-02-22T13:58:14.462Z,32.22
2023-02-22T14:01:43.822Z,33.66
2023-02-22T14:04:46.310Z,35.35
2023-02-22T14:07:49.686Z,36.12
2023-02-22T14:10:56.531Z,35.97
2023-02-22T14:14:19.407Z,34.56
2023-02-22T14:17:25.668Z,34.69
2023-02-22T14:20:37.064Z,35.04
2023-02-22T14:23:45.279Z,35.14
2023-02-22T14:27:04.664Z,35.42
2023-02-22T14:30:07.991Z,35.36
2023-02-22T14:33:47.866Z,35.28
2023-02-22T14:37:07.883Z,34.38
2023-02-22T14:40:27.988Z,34.67
2023-02-22T14:43:30.897Z,34.68
2023-02-22T14:46:40.767Z,34.55
2023-02-22T14:49:48.222Z,35.23
2023-02-22T14:53:23.004Z,37.40
2023-02-22T14:56:36.426Z,38.59
2023-02-22T14:59:54.533Z,38.10
2023-02-22T15:03:00.977Z,39.34
2023-02-22T15:06:06.669Z,39.71
2023-02-22T15:09:16.143Z,40.23
2023-02-22T15:12:31.302Z,41.06
2023-02-22T15:15:33.769Z,42.76
2023-02-22T15:18:43.404Z,43.57
2023-02-22T15:21:46.798Z,44.32
2023-02-22T15:25:00.511Z,44.32
2023-02-22T15:28:05.519Z,44.61
2023-02-22T15:31:27.726Z,45.80
2023-02-22T15:34:32.328Z,46.09
2023-02-22T15:37:35.052Z,45.96
2023-02-22T15:40:43.286Z,46.70
2023-02-22T15:43:45.821Z,46.99
2023-02-22T15:46:48.337Z,47.67
2023-02-22T15:50:16.151Z,47.85
2023-02-22T15:53:40.390Z,47.83
2023-02-22T15:56:55.675Z,48.32
2023-02-22T15:59:58.565Z,48.79
2023-02-22T16:03:01.140Z,48.86
2023-02-22T16:06:12.139Z,49.62
2023-02-22T16:09:23.281Z,50.15
2023-02-22T16:12:28.320Z,50.07
2023-02-22T16:15:36.956Z,50.98
2023-02-22T16:18:40.046Z,51.06
2023-02-22T16:22:03.675Z,51.56
2023-02-22T16:25:18.916Z,51.87
2023-02-22T16:28:36.669Z,51.90
2023-02-22T16:31:41.709Z,51.85
2023-02-22T16:34:45.702Z,52.18
2023-02-22T16:37:57.458Z,52.34
2023-02-22T16:41:01.144Z,52.92
2023-02-22T16:44:08.416Z,53.66
2023-02-22T16:47:13.299Z,54.13
2023-02-22T16:50:17.969Z,54.43
2023-02-22T16:53:24.891Z,56.21
2023-02-22T16:56:34.444Z,56.46
2023-02-22T16:59:40.795Z,57.48
2023-02-22T17:02:45.939Z,58.22
2023-02-22T17:05:50.614Z,59.13
2023-02-22T17:08:54.762Z,59.60
2023-02-22T17:12:00.917Z,59.40
2023-02-22T17:15:05.543Z,59.81
2023-02-22T17:18:23.513Z,59.96
2023-02-22T17:21:28.277Z,59.95
2023-02-22T17:24:34.687Z,60.02
2023-02-22T17:27:38.968Z,60.40
2023-02-22T17:30:44.692Z,60.60
2023-02-22T17:33:48.256Z,60.64
2023-02-22T17:36:51.373Z,60.48
2023-02-22T17:39:56.132Z,61.56
2023-02-22T17:42:59.566Z,62.73
2023-02-22T17:46:08.159Z,63.21
2023-02-22T17:49:14.086Z,63.93
2023-02-22T17:52:17.985Z,64.78
2023-02-22T17:55:22.639Z,65.02
2023-02-22T17:58:31.284Z,64.66
2023-02-22T18:01:34.582Z,65.08
2023-02-22T18:04:39.987Z,64.94
2023-02-22T18:07:44.673Z,64.94
2023-02-22T18:10:47.825Z,64.80
2023-02-22T18:13:53.214Z,65.34
2023-02-22T18:16:56.481Z,66.24
2023-02-22T18:20:01.250Z,66.02
2023-02-22T18:23:12.069Z,65.98
2023-02-22T18:26:18.755Z,66.79
2023-02-22T18:29:22.166Z,66.93
2023-02-22T18:32:30.996Z,67.36
2023-02-22T18:35:35.802Z,68.29
2023-02-22T18:38:44.059Z,69.08
2023-02-22T18:41:52.245Z,69.50
2023-02-22T18:45:01.425Z,69.99
2023-02-22T18:48:05.160Z,70.45
2023-02-22T18:51:11.659Z,70.69
2023-02-22T18:54:15.186Z,71.04
2023-02-22T18:57:23.281Z,71.50
2023-02-22T19:00:30.043Z,71.98
2023-02-22T19:03:39.531Z,72.28
2023-02-22T19:06:45.832Z,72.30
2023-02-22T19:09:51.555Z,72.24
2023-02-22T19:12:55.769Z,73.15
2023-02-22T19:15:59.569Z,72.84
2023-02-22T19:19:07.869Z,72.70
2023-02-22T19:22:16.510Z,73.18
2023-02-22T19:25:23.060Z,73.30
2023-02-22T19:28:34.520Z,73.20
2023-02-22T19:31:40.887Z,72.84
2023-02-22T19:34:46.166Z,72.58
2023-02-22T19:37:54.589Z,72.40
2023-02-22T19:41:00.322Z,72.28
2023-02-22T19:44:05.370Z,73.04
2023-02-22T19:47:10.756Z,73.23
2023-02-22T19:50:16.646Z,73.85
2023-02-22T19:53:21.361Z,74.38
2023-02-22T19:56:29.783Z,74.54
2023-02-22T19:59:34.171Z,74.91
2023-02-22T20:02:40.350Z,75.22
2023-02-22T20:05:54.458Z,75.46
2023-02-22T20:08:58.912Z,75.48
2023-02-22T20:12:06.246Z,75.83
2023-02-22T20:15:12.777Z,75.95
2023-02-22T20:18:18.002Z,76.23
2023-02-22T20:21:32.006Z,76.30
2023-02-22T20:24:37.131Z,76.32
2023-02-22T20:27:41.346Z,76.58
2023-02-22T20:30:45.474Z,76.74
2023-02-22T20:33:53.928Z,77.03
2023-02-22T20:36:58.875Z,77.55
2023-02-22T20:40:05.522Z,77.31
2023-02-22T20:43:10.452Z,77.62
2023-02-22T20:46:14.428Z,77.78
2023-02-22T20:49:23.781Z,77.71
2023-02-22T20:52:28.472Z,77.98
2023-02-22T20:55:35.105Z,78.07
2023-02-22T20:58:38.699Z,78.26
2023-02-22T21:01:42.979Z,78.17
2023-02-22T21:04:46.866Z,78.33
2023-02-22T21:07:50.624Z,78.47
2023-02-22T21:10:56.475Z,78.70
2023-02-22T21:14:01.232Z,78.64
2023-02-22T21:17:05.416Z,78.78
2023-02-22T21:20:13.581Z,78.92
2023-02-22T21:23:18.365Z,79.40
2023-02-22T21:26:24.880Z,79.54
2023-02-22T21:29:30.008Z,79.49
2023-02-22T21:36:34.215Z,79.63
2023-02-22T21:39:37.805Z,79.54
2023-02-22T21:45:54.347Z,79.68
2023-02-22T21:48:58.950Z,79.94
2023-02-22T21:52:04.984Z,79.87
2023-02-22T21:55:08.067Z,80.43
2023-02-22T21:58:10.519Z,80.75
2023-02-22T22:01:17.977Z,80.73
2023-02-22T22:04:23.002Z,81.43
2023-02-22T22:07:25.233Z,81.42
2023-02-22T22:10:33.286Z,81.43
2023-02-22T22:17:00.295Z,82.03
2023-02-22T22:20:05.478Z,82.35
2023-02-22T22:23:08.021Z,82.38
2023-02-22T22:26:13.570Z,83.15
2023-02-22T22:29:15.747Z,83.15
2023-02-22T22:32:20.932Z,83.17
2023-02-22T22:35:23.463Z,83.19
2023-02-22T22:38:29.939Z,83.39
2023-02-22T22:41:34.064Z,83.63
2023-02-22T22:44:42.278Z,83.57
2023-02-22T22:47:46.298Z,83.69
2023-02-22T22:50:57.133Z,83.81
2023-02-22T22:54:00.311Z,83.97
2023-02-22T22:57:04.109Z,84.04
2023-02-22T23:00:29.899Z,84.19
2023-02-22T23:03:33.871Z,84.38
2023-02-22T23:06:47.964Z,84.22
2023-02-22T23:09:50.083Z,84.25
2023-02-22T23:12:53.904Z,84.60
2023-02-22T23:15:56.075Z,84.51
2023-02-22T23:18:59.199Z,84.51
2023-02-22T23:22:01.927Z,84.86
2023-02-22T23:25:05.874Z,85.02
2023-02-22T23:28:14.780Z,85.25
2023-02-22T23:31:18.065Z,85.31
2023-02-22T23:34:23.296Z,85.15
2023-02-22T23:37:25.337Z,85.27
2023-02-22T23:40:29.200Z,85.52
2023-02-22T23:43:34.869Z,85.64
2023-02-22T23:46:41.847Z,85.75
2023-02-22T23:49:49.423Z,85.70
2023-02-22T23:52:59.730Z,85.72
2023-02-22T23:56:01.834Z,85.93
2023-02-22T23:59:11.205Z,86.05
